sensor_id;sensor_type;location;lat;lon;timestamp;P1;durP1;ratioP1;P2;durP2;ratioP2
55076;SDS011;40971;44.702;11.030;2023-02-22T00:00:50;31.57;;;18.50;;
55076;SDS011;40971;44.702;11.030;2023-02-22T00:10:51;35.67;;;18.17;;
55076;SDS011;40971;44.702;11.030;2023-02-22T00:20:52;37.05;;;18.58;;
55076;SDS011;40971;44.702;11.030;2023-02-22T00:30:53;42.33;;;20.08;;
55076;SDS011;40971;44.702;11.030;2023-02-22T00:40:53;40.75;;;19.67;;
55076;SDS011;40971;44.702;11.030;2023-02-22T00:50:54;37.25;;;18.08;;
55076;SDS011;40971;44.702;11.030;2023-02-22T01:00:55;39.73;;;18.63;;
55076;SDS011;40971;44.702;11.030;2023-02-22T01:10:55;34.58;;;17.02;;
55076;SDS011;40971;44.702;11.030;2023-02-22T01:20:56;40.63;;;19.38;;
55076;SDS011;40971;44.702;11.030;2023-02-22T01:40:57;34.35;;;16.95;;
55076;SDS011;40971;44.702;11.030;2023-02-22T02:01:01;44.20;;;18.50;;
55076;SDS011;40971;44.702;11.030;2023-02-22T02:11:02;34.17;;;17.93;;
55076;SDS011;40971;44.702;11.030;2023-02-22T02:41:28;35.67;;;16.85;;
55076;SDS011;40971;44.702;11.030;2023-02-22T02:51:39;38.30;;;16.88;;
55076;SDS011;40971;44.702;11.030;2023-02-22T03:22:30;38.75;;;17.20;;
55076;SDS011;40971;44.702;11.030;2023-02-22T03:32:56;39.45;;;18.52;;
55076;SDS011;40971;44.702;11.030;2023-02-22T03:43:03;37.05;;;17.52;;
55076;SDS011;40971;44.702;11.030;2023-02-22T03:53:13;27.25;;;14.82;;
55076;SDS011;40971;44.702;11.030;2023-02-22T04:03:14;30.70;;;16.63;;
55076;SDS011;40971;44.702;11.030;2023-02-22T04:13:16;38.75;;;19.35;;
55076;SDS011;40971;44.702;11.030;2023-02-22T04:23:17;34.10;;;17.67;;
55076;SDS011;40971;44.702;11.030;2023-02-22T04:33:17;28.70;;;15.48;;
55076;SDS011;40971;44.702;11.030;2023-02-22T04:43:18;39.60;;;15.30;;
55076;SDS011;40971;44.702;11.030;2023-02-22T04:53:19;30.00;;;14.25;;
55076;SDS011;40971;44.702;11.030;2023-02-22T05:03:19;27.55;;;16.08;;
55076;SDS011;40971;44.702;11.030;2023-02-22T05:13:20;28.77;;;14.35;;
55076;SDS011;40971;44.702;11.030;2023-02-22T05:23:21;32.47;;;16.35;;
55076;SDS011;40971;44.702;11.030;2023-02-22T05:33:21;32.78;;;14.50;;
55076;SDS011;40971;44.702;11.030;2023-02-22T05:43:22;33.78;;;15.95;;
55076;SDS011;40971;44.702;11.030;2023-02-22T05:53:23;31.65;;;17.50;;
55076;SDS011;40971;44.702;11.030;2023-02-22T06:03:24;30.42;;;15.65;;
55076;SDS011;40971;44.702;11.030;2023-02-22T06:13:24;34.80;;;15.90;;
55076;SDS011;40971;44.702;11.030;2023-02-22T06:23:25;39.17;;;16.83;;
55076;SDS011;40971;44.702;11.030;2023-02-22T06:33:26;40.30;;;15.90;;
55076;SDS011;40971;44.702;11.030;2023-02-22T06:43:26;29.55;;;16.95;;
55076;SDS011;40971;44.702;11.030;2023-02-22T06:53:27;39.53;;;19.08;;
55076;SDS011;40971;44.702;11.030;2023-02-22T07:13:27;38.72;;;17.98;;
55076;SDS011;40971;44.702;11.030;2023-02-22T07:23:28;35.30;;;16.70;;
55076;SDS011;40971;44.702;11.030;2023-02-22T07:33:29;33.08;;;14.93;;
55076;SDS011;40971;44.702;11.030;2023-02-22T07:43:29;34.87;;;18.00;;
55076;SDS011;40971;44.702;11.030;2023-02-22T07:53:30;37.07;;;19.60;;
55076;SDS011;40971;44.702;11.030;2023-02-22T08:03:33;41.40;;;17.92;;
55076;SDS011;40971;44.702;11.030;2023-02-22T08:13:35;49.05;;;20.58;;
55076;SDS011;40971;44.702;11.030;2023-02-22T08:23:37;38.92;;;17.60;;
55076;SDS011;40971;44.702;11.030;2023-02-22T08:43:38;45.25;;;20.80;;
55076;SDS011;40971;44.702;11.030;2023-02-22T08:53:38;39.72;;;20.02;;
55076;SDS011;40971;44.702;11.030;2023-02-22T09:03:39;39.83;;;19.40;;
55076;SDS011;40971;44.702;11.030;2023-02-22T09:13:39;41.00;;;18.52;;
55076;SDS011;40971;44.702;11.030;2023-02-22T09:33:40;47.05;;;21.90;;
55076;SDS011;40971;44.702;11.030;2023-02-22T09:43:55;47.47;;;22.48;;
55076;SDS011;40971;44.702;11.030;2023-02-22T09:54:13;50.42;;;23.75;;
55076;SDS011;40971;44.702;11.030;2023-02-22T10:05:13;47.60;;;24.92;;
55076;SDS011;40971;44.702;11.030;2023-02-22T10:25:44;50.90;;;22.25;;
55076;SDS011;40971;44.702;11.030;2023-02-22T10:35:48;54.15;;;24.42;;
55076;SDS011;40971;44.702;11.030;2023-02-22T10:45:54;43.85;;;21.67;;
55076;SDS011;40971;44.702;11.030;2023-02-22T10:56:13;53.97;;;24.77;;
55076;SDS011;40971;44.702;11.030;2023-02-22T11:06:22;53.60;;;25.40;;
55076;SDS011;40971;44.702;11.030;2023-02-22T11:16:27;47.28;;;22.88;;
55076;SDS011;40971;44.702;11.030;2023-02-22T11:26:36;53.55;;;23.60;;
55076;SDS011;40971;44.702;11.030;2023-02-22T11:36:40;52.47;;;23.85;;
55076;SDS011;40971;44.702;11.030;2023-02-22T11:46:42;49.25;;;23.88;;
55076;SDS011;40971;44.702;11.030;2023-02-22T11:56:43;48.65;;;24.75;;
55076;SDS011;40971;44.702;11.030;2023-02-22T12:06:50;59.75;;;25.30;;
55076;SDS011;40971;44.702;11.030;2023-02-22T12:17:12;49.08;;;24.20;;
55076;SDS011;40971;44.702;11.030;2023-02-22T12:27:35;58.28;;;27.35;;
55076;SDS011;40971;44.702;11.030;2023-02-22T12:48:35;57.95;;;24.65;;
55076;SDS011;40971;44.702;11.030;2023-02-22T12:58:52;51.13;;;21.98;;
55076;SDS011;40971;44.702;11.030;2023-02-22T13:19:29;44.70;;;21.90;;
55076;SDS011;40971;44.702;11.030;2023-02-22T13:29:36;49.42;;;23.15;;
55076;SDS011;40971;44.702;11.030;2023-02-22T14:10:35;49.13;;;23.58;;
55076;SDS011;40971;44.702;11.030;2023-02-22T14:20:36;49.30;;;23.08;;
55076;SDS011;40971;44.702;11.030;2023-02-22T14:30:37;48.30;;;20.63;;
55076;SDS011;40971;44.702;11.030;2023-02-22T14:40:39;42.90;;;18.83;;
55076;SDS011;40971;44.702;11.030;2023-02-22T14:50:47;47.63;;;21.67;;
55076;SDS011;40971;44.702;11.030;2023-02-22T15:00:52;42.55;;;19.83;;
55076;SDS011;40971;44.702;11.030;2023-02-22T15:10:55;39.95;;;19.48;;
55076;SDS011;40971;44.702;11.030;2023-02-22T15:20:57;47.45;;;22.67;;
55076;SDS011;40971;44.702;11.030;2023-02-22T15:31:13;45.17;;;21.77;;
55076;SDS011;40971;44.702;11.030;2023-02-22T15:41:23;49.55;;;20.27;;
55076;SDS011;40971;44.702;11.030;2023-02-22T15:51:31;47.72;;;21.67;;
55076;SDS011;40971;44.702;11.030;2023-02-22T16:01:37;48.15;;;20.83;;
55076;SDS011;40971;44.702;11.030;2023-02-22T16:11:43;44.50;;;21.02;;
55076;SDS011;40971;44.702;11.030;2023-02-22T16:21:52;42.22;;;21.63;;
55076;SDS011;40971;44.702;11.030;2023-02-22T16:31:57;39.45;;;19.70;;
55076;SDS011;40971;44.702;11.030;2023-02-22T16:41:58;44.67;;;20.00;;
55076;SDS011;40971;44.702;11.030;2023-02-22T16:52:01;42.72;;;19.40;;
55076;SDS011;40971;44.702;11.030;2023-02-22T17:02:08;42.72;;;20.55;;
55076;SDS011;40971;44.702;11.030;2023-02-22T17:12:12;46.92;;;20.70;;
55076;SDS011;40971;44.702;11.030;2023-02-22T17:22:16;45.15;;;18.35;;
55076;SDS011;40971;44.702;11.030;2023-02-22T17:32:19;57.97;;;27.02;;
55076;SDS011;40971;44.702;11.030;2023-02-22T17:42:19;41.03;;;21.20;;
55076;SDS011;40971;44.702;11.030;2023-02-22T17:52:20;42.30;;;19.90;;
55076;SDS011;40971;44.702;11.030;2023-02-22T18:02:20;47.85;;;22.90;;
55076;SDS011;40971;44.702;11.030;2023-02-22T18:12:21;43.40;;;20.65;;
55076;SDS011;40971;44.702;11.030;2023-02-22T18:22:21;34.42;;;18.02;;
55076;SDS011;40971;44.702;11.030;2023-02-22T18:32:22;34.70;;;17.80;;
55076;SDS011;40971;44.702;11.030;2023-02-22T18:42:23;32.95;;;18.00;;
55076;SDS011;40971;44.702;11.030;2023-02-22T18:52:25;40.08;;;17.23;;
55076;SDS011;40971;44.702;11.030;2023-02-22T19:02:25;45.88;;;20.48;;
55076;SDS011;40971;44.702;11.030;2023-02-22T19:12:26;34.53;;;16.45;;
55076;SDS011;40971;44.702;11.030;2023-02-22T19:22:26;33.40;;;15.35;;
55076;SDS011;40971;44.702;11.030;2023-02-22T19:32:31;39.60;;;17.65;;
55076;SDS011;40971;44.702;11.030;2023-02-22T19:42:32;41.03;;;17.77;;
55076;SDS011;40971;44.702;11.030;2023-02-22T19:52:32;37.97;;;17.35;;
55076;SDS011;40971;44.702;11.030;2023-02-22T20:02:34;31.08;;;16.48;;
55076;SDS011;40971;44.702;11.030;2023-02-22T20:12:35;35.23;;;17.33;;
55076;SDS011;40971;44.702;11.030;2023-02-22T20:22:35;39.22;;;18.02;;
55076;SDS011;40971;44.702;11.030;2023-02-22T20:32:36;35.60;;;17.33;;
55076;SDS011;40971;44.702;11.030;2023-02-22T20:42:38;36.92;;;18.33;;
55076;SDS011;40971;44.702;11.030;2023-02-22T20:52:39;38.53;;;19.42;;
55076;SDS011;40971;44.702;11.030;2023-02-22T21:02:40;39.57;;;19.03;;
55076;SDS011;40971;44.702;11.030;2023-02-22T21:12:40;39.50;;;16.85;;
55076;SDS011;40971;44.702;11.030;2023-02-22T21:22:41;33.28;;;18.15;;
55076;SDS011;40971;44.702;11.030;2023-02-22T21:32:44;36.97;;;19.00;;
55076;SDS011;40971;44.702;11.030;2023-02-22T21:42:48;37.15;;;16.77;;
55076;SDS011;40971;44.702;11.030;2023-02-22T21:52:49;29.60;;;15.45;;
55076;SDS011;40971;44.702;11.030;2023-02-22T22:02:50;32.38;;;15.80;;
55076;SDS011;40971;44.702;11.030;2023-02-22T22:22:51;32.97;;;15.97;;
55076;SDS011;40971;44.702;11.030;2023-02-22T22:32:53;26.80;;;14.98;;
55076;SDS011;40971;44.702;11.030;2023-02-22T22:42:54;30.80;;;15.87;;
55076;SDS011;40971;44.702;11.030;2023-02-22T23:02:55;35.28;;;17.83;;
55076;SDS011;40971;44.702;11.030;2023-02-22T23:12:56;34.10;;;17.77;;
55076;SDS011;40971;44.702;11.030;2023-02-22T23:32:57;39.90;;;18.90;;
55076;SDS011;40971;44.702;11.030;2023-02-22T23:43:00;41.55;;;19.65;;
55076;SDS011;40971;44.702;11.030;2023-02-22T23:53:03;36.22;;;17.60;;
